Spencer, WI

6:06 PM CDT on July 22, 2017 (GMT -0500)
Rural | | Change Station

Elev 1210 ft 44.75 °N, 90.14 °W | Updated 9 seconds ago

Clear
Clear
84.2 °F
Feels Like 91 °F
N
1.0
Wind Variable Wind from SW

Today
High -- | Low -- °F
--% Chance of Precip.
Yesterday
High -- | Low -- °F
Precip. -- in
Pressure 29.77 in
Visibility 10.0 miles
Clouds Few 4300 ft
Heat Index 91 °F
Dew Point 73 °F
Humidity 70%
Rainfall 0.00 in
Snow Depth Not available.
5:36 AM 8:37 PM
Waning Crescent, 0% visible
METAR KMFI 222254Z AUTO 29006KT 10SM FEW043 29/19 A2980 RMK AO2 SLP081 T02890194 TSNO
Pressure 29.77 in
Visibility 10.0 miles
Clouds Few 4300 ft
Heat Index 91 °F
Dew Point 73 °F
Humidity 70%
Rainfall 0.00 in
Snow Depth Not available.
5:36 AM 8:37 PM
Waning Crescent, 0% visible
METAR KMFI 222254Z AUTO 29006KT 10SM FEW043 29/19 A2980 RMK AO2 SLP081 T02890194 TSNO

Get Severe Weather Alerts

Thanks for signing up!

Be on the lookout for a verification email in your inbox.

You'll start receiving the daily forecast at 6 AM.

×

10-Day Weather Forecast

Almanac

Astronomy

Jul. 22, 2017 Rise Set
Actual Time
Civil Twilight
Nautical Twilight
Astronomical Twilight
Moon
Length of Visible Light
Length of Day
Tomorrow will be .
, % of the Moon is Illuminated

Today's Extremes

State Highs State Lows

Community

WunderPhotos

Category 6

Welcome to Category 6. This is the collective home for Weather Underground's featured writeups by Dr. Jeff Masters (right), Bob Henson (left), Chris Burt, and other regular contributors.

Nearby

Air Quality

  Air Quality AQ Index Pollutant
Not available.

Snow Depth

Station Depth Elevation

Earthquake Activity

City Distance Mag. Time & Date
Minimum magnitude displayed is 2.5.

Coastal Water Temperatures

Place Temperature

Stations

Nearby Weather Stations

Station Location Temp. Windchill Dew Point Humidity Wind Precip. Elev Updated Type
                   

Watches & Warnings

There are currently no watches in effect.